Main page
METAR-TAF:

METAR-TAF

Airports :

Salem–Leckrone Airport

Salem, Illinois, United States

latitude: 38-38-34N, longitude: 088-57-51W, elevation: 574 ft

Current weather observation

The report was made 44 minutes ago, at 11:55 UTC
Calm wind
Temperature 72°F
Humidity 100%
Pressure 29.94 in. Hg
Visibility: 5 miles
Scattered clouds at a height of 800 ft
mist

METAR: KSLO 171155Z AUTO 00000KT 5SM BR SCT008 22/22 A2994 RMK AO2 70069 T02220220 10225 20208

Time: 07:39 (12:39 UTC)


TAF: missing

Weather observations and forecasts of more than 4000 airports (METAR and TAF reports).

The available stations are represented by yellow and red dots on the map.

Hover mouse over dot to see the name of the station.

Then click to see weather observations and forecasts.

To change the map : click on the green buttons with a black cross to zoom in, on the green button with a dash to zoom out, or on the green arrows for adjacent maps.


METAR-TAF: